createdAt,value
2018-08-04T00:00:00.313Z,26.65
2018-08-04T00:03:03.609Z,26.62
2018-08-04T00:06:06.808Z,26.62
2018-08-04T00:09:11.786Z,26.51
2018-08-04T00:12:16.174Z,26.50
2018-08-04T00:15:19.704Z,26.55
2018-08-04T00:18:22.898Z,26.52
2018-08-04T00:21:26.166Z,26.48
2018-08-04T00:24:29.486Z,26.45
2018-08-04T00:27:33.792Z,26.26
2018-08-04T00:30:37.107Z,26.15
2018-08-04T00:33:40.390Z,26.22
2018-08-04T00:36:44.131Z,26.12
2018-08-04T00:39:47.392Z,26.05
2018-08-04T00:42:50.719Z,26.05
2018-08-04T00:45:55.003Z,25.88
2018-08-04T00:48:58.295Z,25.77
2018-08-04T00:52:01.499Z,25.67
2018-08-04T00:55:05.147Z,25.67
2018-08-04T00:58:08.396Z,25.76
2018-08-04T01:01:11.615Z,25.80
2018-08-04T01:04:14.908Z,25.73
2018-08-04T01:07:18.206Z,25.79
2018-08-04T01:10:27.258Z,25.87
2018-08-04T01:13:30.563Z,25.94
2018-08-04T01:16:33.842Z,25.98
2018-08-04T01:19:37.186Z,25.98
2018-08-04T01:22:40.542Z,25.97
2018-08-04T01:25:44.787Z,25.94
2018-08-04T01:28:48.039Z,25.89
2018-08-04T01:31:51.449Z,25.82
2018-08-04T01:34:54.732Z,25.79
2018-08-04T01:37:58.091Z,25.71
2018-08-04T01:41:01.468Z,25.47
2018-08-04T01:44:05.072Z,25.53
2018-08-04T01:47:08.330Z,25.56
2018-08-04T01:50:11.647Z,25.57
2018-08-04T01:53:14.950Z,25.55
2018-08-04T01:56:18.227Z,25.39
2018-08-04T01:59:21.566Z,25.18
2018-08-04T02:02:24.833Z,25.09
2018-08-04T02:05:28.127Z,25.14
2018-08-04T02:08:31.447Z,25.15
2018-08-04T02:11:34.935Z,25.13
2018-08-04T02:14:38.218Z,25.18
2018-08-04T02:17:41.399Z,25.16
2018-08-04T02:20:45.722Z,25.10
2018-08-04T02:23:48.920Z,24.99
2018-08-04T02:26:52.232Z,24.96
2018-08-04T02:29:55.515Z,25.02
2018-08-04T02:32:58.712Z,25.01
2018-08-04T02:36:02.011Z,25.05
2018-08-04T02:39:07.138Z,24.97
2018-08-04T02:42:10.439Z,24.92
2018-08-04T02:45:14.099Z,24.91
2018-08-04T02:48:17.368Z,24.95
2018-08-04T02:51:20.847Z,24.93
2018-08-04T02:54:24.177Z,24.91
2018-08-04T02:57:27.466Z,24.74
2018-08-04T03:00:30.767Z,24.62
2018-08-04T03:03:33.927Z,24.56
2018-08-04T03:06:37.239Z,24.54
2018-08-04T03:09:40.552Z,24.56
2018-08-04T03:12:44.181Z,24.57
2018-08-04T03:15:47.472Z,24.63
2018-08-04T03:18:50.750Z,24.50
2018-08-04T03:21:53.946Z,24.45
2018-08-04T03:24:57.284Z,24.46
2018-08-04T03:28:01.570Z,24.45
2018-08-04T03:31:04.868Z,24.38
2018-08-04T03:34:08.139Z,24.38
2018-08-04T03:37:11.304Z,24.37
2018-08-04T03:40:15.036Z,24.39
2018-08-04T03:43:18.362Z,24.34
2018-08-04T03:46:21.660Z,24.29
2018-08-04T03:49:24.952Z,24.27
2018-08-04T03:52:28.173Z,24.20
2018-08-04T03:55:31.469Z,24.19
2018-08-04T03:58:34.711Z,24.11
2018-08-04T04:01:38.043Z,23.99
2018-08-04T04:04:41.332Z,23.94
2018-08-04T04:07:45.123Z,23.98
2018-08-04T04:10:48.440Z,24.09
2018-08-04T04:13:52.107Z,24.20
2018-08-04T04:16:55.348Z,24.26
2018-08-04T04:19:58.635Z,24.05
2018-08-04T04:23:01.960Z,23.96
2018-08-04T04:26:05.236Z,23.93
2018-08-04T04:29:08.525Z,24.01
2018-08-04T04:32:11.824Z,24.12
2018-08-04T04:35:15.935Z,24.18
2018-08-04T04:38:19.079Z,24.26
2018-08-04T04:41:22.328Z,24.13
2018-08-04T04:44:25.534Z,24.15
2018-08-04T04:47:28.857Z,24.19
2018-08-04T04:50:32.140Z,24.18
2018-08-04T04:53:35.419Z,24.22
2018-08-04T04:56:41.922Z,24.31
2018-08-04T04:59:45.923Z,24.40
2018-08-04T05:02:49.195Z,24.50
2018-08-04T05:05:52.566Z,24.54
2018-08-04T05:08:55.798Z,24.59
2018-08-04T05:11:59.007Z,24.71
2018-08-04T05:15:02.319Z,24.76
2018-08-04T05:18:05.678Z,24.80
2018-08-04T05:21:08.874Z,24.84
2018-08-04T05:24:12.226Z,24.92
2018-08-04T05:27:16.463Z,24.98
2018-08-04T05:30:19.701Z,25.08
2018-08-04T05:33:23.019Z,25.11
2018-08-04T05:36:26.307Z,25.15
2018-08-04T05:39:29.479Z,25.28
2018-08-04T05:42:32.811Z,25.36
2018-08-04T05:45:36.083Z,25.49
2018-08-04T05:48:39.263Z,25.60
2018-08-04T05:51:42.575Z,25.70
2018-08-04T05:54:47.345Z,25.78
2018-08-04T05:57:50.651Z,25.82
2018-08-04T06:00:53.923Z,25.90
2018-08-04T06:03:57.193Z,25.96
2018-08-04T06:07:00.414Z,25.98
2018-08-04T06:10:03.707Z,26.07
2018-08-04T06:13:07.029Z,26.16
2018-08-04T06:16:10.285Z,26.24
2018-08-04T06:19:14.342Z,26.21
2018-08-04T06:22:21.023Z,26.18
2018-08-04T06:25:24.287Z,26.33
2018-08-04T06:28:27.588Z,26.41
2018-08-04T06:31:30.999Z,26.44
2018-08-04T06:34:34.279Z,26.57
2018-08-04T06:37:37.563Z,26.76
2018-08-04T06:40:40.859Z,26.89
2018-08-04T06:43:45.136Z,27.09
2018-08-04T06:46:48.377Z,27.11
2018-08-04T06:49:51.678Z,27.09
2018-08-04T06:52:54.908Z,27.21
2018-08-04T06:55:58.210Z,27.30
2018-08-04T06:59:01.479Z,27.37
2018-08-04T07:02:04.674Z,27.32
2018-08-04T07:05:07.975Z,27.31
2018-08-04T07:08:11.252Z,27.42
2018-08-04T07:11:15.212Z,27.63
2018-08-04T07:14:18.460Z,27.81
2018-08-04T07:17:21.770Z,27.94
2018-08-04T07:20:25.075Z,28.01
2018-08-04T07:23:28.397Z,28.09
2018-08-04T07:26:31.670Z,28.24
2018-08-04T07:29:35.047Z,28.29
2018-08-04T07:32:38.380Z,28.47
2018-08-04T07:35:41.673Z,28.39
2018-08-04T07:38:45.246Z,28.31
2018-08-04T07:41:48.644Z,28.46
2018-08-04T07:44:51.872Z,28.51
2018-08-04T07:47:55.168Z,28.63
2018-08-04T07:50:58.589Z,28.88
2018-08-04T07:54:01.852Z,29.02
2018-08-04T07:57:05.382Z,29.14
2018-08-04T08:00:09.083Z,29.25
2018-08-04T08:03:12.374Z,29.22
2018-08-04T08:06:16.694Z,29.41
2018-08-04T08:09:19.987Z,29.68
2018-08-04T08:12:23.498Z,30.08
2018-08-04T08:15:26.794Z,30.23
2018-08-04T08:18:29.990Z,30.47
2018-08-04T08:21:33.327Z,30.76
2018-08-04T08:24:36.466Z,31.02
2018-08-04T08:27:40.102Z,31.01
2018-08-04T08:30:43.383Z,31.02
2018-08-04T08:33:46.990Z,31.07
2018-08-04T08:36:50.359Z,31.18
2018-08-04T08:39:53.673Z,31.34
2018-08-04T08:42:57.895Z,31.45
2018-08-04T08:46:01.063Z,31.19
2018-08-04T08:49:04.390Z,31.57
2018-08-04T08:52:07.680Z,31.71
2018-08-04T08:55:10.883Z,31.92
2018-08-04T08:58:15.243Z,32.03
2018-08-04T09:01:18.495Z,32.08
2018-08-04T09:04:21.788Z,32.20
2018-08-04T09:07:25.102Z,32.29
2018-08-04T09:10:28.384Z,32.29
2018-08-04T09:13:31.680Z,32.43
2018-08-04T09:16:35.110Z,32.62
2018-08-04T09:19:38.430Z,32.54
2018-08-04T09:22:41.763Z,32.63
2018-08-04T09:25:46.334Z,32.65
2018-08-04T09:28:49.594Z,32.63
2018-08-04T09:31:52.918Z,32.61
2018-08-04T09:34:57.218Z,32.71
2018-08-04T09:38:00.431Z,32.77
2018-08-04T09:41:04.167Z,32.86
2018-08-04T09:44:07.573Z,33.19
2018-08-04T09:47:12.786Z,33.16
2018-08-04T09:50:17.438Z,33.14
2018-08-04T09:53:21.731Z,33.23
2018-08-04T09:56:25.248Z,33.37
2018-08-04T09:59:28.530Z,33.59
2018-08-04T10:02:31.726Z,33.52
2018-08-04T10:05:36.044Z,33.46
2018-08-04T10:08:39.300Z,33.51
2018-08-04T10:11:42.639Z,33.50
2018-08-04T10:14:47.190Z,33.60
2018-08-04T10:17:50.337Z,33.71
2018-08-04T10:20:53.842Z,33.83
2018-08-04T10:23:57.171Z,33.98
2018-08-04T10:27:00.695Z,33.94
2018-08-04T10:30:07.472Z,33.98
2018-08-04T10:33:10.766Z,34.35
2018-08-04T10:36:14.504Z,34.57
2018-08-04T10:39:17.817Z,34.55
2018-08-04T10:42:21.380Z,34.63
2018-08-04T10:45:24.757Z,35.03
2018-08-04T10:48:28.015Z,34.92
2018-08-04T10:51:31.247Z,34.80
2018-08-04T10:54:35.531Z,34.76
2018-08-04T10:57:38.862Z,34.53
2018-08-04T11:00:42.057Z,34.56
2018-08-04T11:03:46.418Z,34.63
2018-08-04T11:06:49.578Z,34.94
2018-08-04T11:09:53.020Z,34.91
2018-08-04T11:12:56.512Z,35.03
2018-08-04T11:15:59.758Z,35.32
2018-08-04T11:19:03.292Z,35.24
2018-08-04T11:22:06.616Z,35.18
2018-08-04T11:25:09.851Z,35.42
2018-08-04T11:28:13.163Z,35.48
2018-08-04T11:31:17.443Z,35.68
2018-08-04T11:34:20.677Z,35.83
2018-08-04T11:37:23.961Z,35.48
2018-08-04T11:40:27.283Z,35.16
2018-08-04T11:43:30.560Z,34.83
2018-08-04T11:46:33.855Z,34.75
2018-08-04T11:49:37.275Z,34.62
2018-08-04T11:52:40.561Z,34.66
2018-08-04T11:55:43.783Z,34.66
2018-08-04T11:58:48.003Z,34.50
2018-08-04T12:01:51.281Z,34.62
2018-08-04T12:04:54.611Z,34.62
2018-08-04T12:07:57.880Z,34.81
2018-08-04T12:11:01.183Z,35.18
2018-08-04T12:14:09.416Z,35.60
2018-08-04T12:17:12.694Z,35.93
2018-08-04T12:20:17.115Z,36.11
2018-08-04T12:23:20.458Z,36.27
2018-08-04T12:26:23.623Z,36.44
2018-08-04T12:29:26.871Z,36.48
2018-08-04T12:32:30.075Z,36.58
2018-08-04T12:35:33.403Z,36.56
2018-08-04T12:38:36.658Z,36.36
2018-08-04T12:41:40.218Z,36.44
2018-08-04T12:44:43.392Z,36.35
2018-08-04T12:47:46.768Z,35.93
2018-08-04T12:50:50.319Z,36.11
2018-08-04T12:53:53.719Z,36.45
2018-08-04T12:56:56.955Z,36.70
2018-08-04T13:00:00.152Z,36.72
2018-08-04T13:03:03.506Z,36.43
2018-08-04T13:06:06.771Z,36.38
2018-08-04T13:09:11.099Z,36.37
2018-08-04T13:12:15.443Z,36.09
2018-08-04T13:15:18.770Z,35.98
2018-08-04T13:18:23.066Z,35.98
2018-08-04T13:21:26.258Z,35.87
2018-08-04T13:24:29.499Z,35.70
2018-08-04T13:27:43.755Z,35.72
2018-08-04T13:30:48.610Z,35.91
2018-08-04T13:33:51.836Z,36.13
2018-08-04T13:36:55.176Z,36.14
2018-08-04T13:39:58.436Z,36.26
2018-08-04T13:43:01.746Z,36.24
2018-08-04T13:46:06.161Z,36.29
2018-08-04T13:49:09.715Z,36.30
2018-08-04T13:52:12.857Z,36.54
2018-08-04T13:55:16.159Z,36.69
2018-08-04T13:58:19.403Z,36.95
2018-08-04T14:01:24.803Z,37.03
2018-08-04T14:04:28.166Z,37.22
2018-08-04T14:07:31.466Z,37.53
2018-08-04T14:10:35.405Z,37.20
2018-08-04T14:13:38.683Z,36.72
2018-08-04T14:16:41.965Z,36.83
2018-08-04T14:19:46.318Z,37.13
2018-08-04T14:22:49.649Z,37.04
2018-08-04T14:25:52.882Z,37.13
2018-08-04T14:28:56.159Z,36.87
2018-08-04T14:31:59.307Z,36.84
2018-08-04T14:35:03.767Z,37.10
2018-08-04T14:38:07.574Z,36.85
2018-08-04T14:41:10.903Z,36.75
2018-08-04T14:44:14.337Z,37.01
2018-08-04T14:47:17.612Z,37.34
2018-08-04T14:50:20.911Z,37.10
2018-08-04T14:53:24.111Z,36.78
2018-08-04T14:56:27.386Z,36.37
2018-08-04T14:59:30.588Z,36.63
2018-08-04T15:02:33.929Z,36.92
2018-08-04T15:05:38.056Z,37.06
2018-08-04T15:08:41.299Z,37.29
2018-08-04T15:11:44.611Z,36.93
2018-08-04T15:14:47.824Z,36.42
2018-08-04T15:17:51.099Z,36.18
2018-08-04T15:20:54.519Z,36.40
2018-08-04T15:23:58.935Z,36.37
2018-08-04T15:27:02.334Z,36.32
2018-08-04T15:30:06.067Z,36.61
2018-08-04T15:33:09.597Z,36.67
2018-08-04T15:36:12.827Z,36.80
2018-08-04T15:39:15.994Z,36.86
2018-08-04T15:42:19.416Z,36.77
2018-08-04T15:45:22.716Z,36.62
2018-08-04T15:48:26.119Z,36.75
2018-08-04T15:51:29.760Z,36.74
2018-08-04T15:54:33.027Z,36.73
2018-08-04T15:57:36.479Z,36.80
2018-08-04T16:00:39.821Z,36.82
2018-08-04T16:03:43.248Z,37.03
2018-08-04T16:06:46.624Z,37.05
2018-08-04T16:09:49.961Z,36.94
2018-08-04T16:12:53.214Z,36.74
2018-08-04T16:15:57.558Z,36.63
2018-08-04T16:19:00.863Z,36.85
2018-08-04T16:22:04.156Z,36.82
2018-08-04T16:25:08.675Z,37.02
2018-08-04T16:28:12.458Z,36.94
2018-08-04T16:31:15.770Z,36.90
2018-08-04T16:34:19.033Z,36.81
2018-08-04T16:37:22.237Z,36.86
2018-08-04T16:40:25.567Z,36.94
2018-08-04T16:43:28.855Z,36.82
2018-08-04T16:46:32.146Z,36.69
2018-08-04T16:49:35.434Z,36.66
2018-08-04T16:52:39.764Z,36.60
2018-08-04T16:55:43.041Z,36.44
2018-08-04T16:58:46.343Z,36.44
2018-08-04T17:01:49.642Z,36.49
2018-08-04T17:04:52.958Z,36.27
2018-08-04T17:07:56.231Z,36.17
2018-08-04T17:10:59.443Z,36.24
2018-08-04T17:14:02.782Z,36.23
2018-08-04T17:17:06.578Z,36.24
2018-08-04T17:20:10.783Z,36.19
2018-08-04T17:23:14.395Z,36.04
2018-08-04T17:26:17.676Z,35.92
2018-08-04T17:29:21.616Z,35.86
2018-08-04T17:32:24.871Z,35.76
2018-08-04T17:35:28.191Z,35.79
2018-08-04T17:38:31.439Z,35.76
2018-08-04T17:41:34.665Z,35.78
2018-08-04T17:44:39.110Z,35.77
2018-08-04T17:47:42.655Z,35.76
2018-08-04T17:50:45.875Z,35.70
2018-08-04T17:53:49.194Z,35.53
2018-08-04T17:56:52.546Z,35.41
2018-08-04T17:59:55.699Z,35.30
2018-08-04T18:02:59.139Z,35.17
2018-08-04T18:06:02.285Z,35.10
2018-08-04T18:09:08.660Z,35.00
2018-08-04T18:12:13.211Z,34.96
2018-08-04T18:15:16.475Z,34.91
2018-08-04T18:18:19.697Z,34.84
2018-08-04T18:21:22.945Z,34.80
2018-08-04T18:24:26.158Z,34.76
2018-08-04T18:27:29.431Z,34.69
2018-08-04T18:30:32.631Z,34.67
2018-08-04T18:33:35.868Z,34.64
2018-08-04T18:36:40.040Z,34.51
2018-08-04T18:39:43.392Z,34.45
2018-08-04T18:42:46.700Z,34.40
2018-08-04T18:45:49.987Z,34.39
2018-08-04T18:48:53.263Z,34.33
2018-08-04T18:51:56.581Z,34.28
2018-08-04T18:54:59.895Z,34.24
2018-08-04T18:58:03.168Z,34.19
2018-08-04T19:01:06.682Z,34.03
2018-08-04T19:04:09.939Z,33.90
2018-08-04T19:07:13.237Z,33.85
2018-08-04T19:10:16.467Z,33.80
2018-08-04T19:13:19.728Z,33.72
2018-08-04T19:16:23.102Z,33.60
2018-08-04T19:19:26.311Z,33.45
2018-08-04T19:22:29.813Z,33.37
2018-08-04T19:25:33.035Z,33.28
2018-08-04T19:28:36.412Z,33.19
2018-08-04T19:31:39.543Z,33.09
2018-08-04T19:34:42.840Z,32.95
2018-08-04T19:37:46.175Z,32.91
2018-08-04T19:40:49.530Z,32.81
2018-08-04T19:43:52.934Z,32.76
2018-08-04T19:46:57.235Z,32.62
2018-08-04T19:50:00.859Z,32.57
2018-08-04T19:53:04.155Z,32.48
2018-08-04T19:56:07.469Z,32.40
2018-08-04T19:59:11.412Z,32.36
2018-08-04T20:02:14.639Z,32.29
2018-08-04T20:05:17.920Z,32.20
2018-08-04T20:08:21.330Z,32.08
2018-08-04T20:11:24.831Z,31.99
2018-08-04T20:14:28.108Z,31.96
2018-08-04T20:17:32.355Z,31.85
2018-08-04T20:20:36.805Z,31.83
2018-08-04T20:23:41.177Z,31.73
2018-08-04T20:26:44.555Z,31.65
2018-08-04T20:29:47.791Z,31.59
2018-08-04T20:32:52.023Z,31.51
2018-08-04T20:36:02.428Z,31.43
2018-08-04T20:39:08.628Z,31.33
2018-08-04T20:42:12.384Z,31.23
2018-08-04T20:45:15.543Z,31.14
2018-08-04T20:48:18.870Z,31.07
2018-08-04T20:51:22.168Z,31.03
2018-08-04T20:54:26.509Z,30.97
2018-08-04T20:57:30.799Z,30.89
2018-08-04T21:00:38.825Z,30.84
2018-08-04T21:03:42.009Z,30.75
2018-08-04T21:06:45.483Z,30.66
2018-08-04T21:09:48.710Z,30.61
2018-08-04T21:12:51.991Z,30.53
2018-08-04T21:15:55.334Z,30.48
2018-08-04T21:18:58.729Z,30.41
2018-08-04T21:22:02.002Z,30.33
2018-08-04T21:25:05.295Z,30.27
2018-08-04T21:28:08.929Z,30.19
2018-08-04T21:31:12.167Z,30.15
2018-08-04T21:34:19.003Z,30.12
2018-08-04T21:37:22.363Z,30.07
2018-08-04T21:40:26.694Z,29.95
2018-08-04T21:43:29.978Z,29.91
2018-08-04T21:46:33.281Z,29.88
2018-08-04T21:49:36.603Z,29.82
2018-08-04T21:52:40.577Z,29.83
2018-08-04T21:55:44.053Z,29.77
2018-08-04T21:58:47.320Z,29.78
2018-08-04T22:01:53.721Z,29.78
2018-08-04T22:04:56.943Z,29.72
2018-08-04T22:08:12.578Z,29.69
2018-08-04T22:11:15.853Z,29.57
2018-08-04T22:14:19.154Z,29.55
2018-08-04T22:17:22.435Z,29.49
2018-08-04T22:20:26.402Z,29.41
2018-08-04T22:23:29.642Z,29.35
2018-08-04T22:26:32.855Z,29.27
2018-08-04T22:29:36.151Z,29.22
2018-08-04T22:32:42.122Z,29.17
2018-08-04T22:35:45.394Z,29.12
2018-08-04T22:38:48.724Z,29.04
2018-08-04T22:41:51.986Z,29.01
2018-08-04T22:46:10.299Z,29.01
2018-08-04T22:49:13.553Z,28.91
2018-08-04T22:52:16.835Z,28.86
2018-08-04T22:55:19.974Z,28.83
2018-08-04T22:58:23.270Z,28.79
2018-08-04T23:01:26.527Z,28.74
2018-08-04T23:04:29.730Z,28.72
2018-08-04T23:07:33.035Z,28.68
2018-08-04T23:10:37.153Z,28.62
2018-08-04T23:13:41.427Z,28.63
2018-08-04T23:16:44.750Z,28.59
2018-08-04T23:19:48.050Z,28.53
2018-08-04T23:22:51.446Z,28.48
2018-08-04T23:25:54.800Z,28.41
2018-08-04T23:28:58.035Z,28.37
2018-08-04T23:32:01.263Z,28.33
2018-08-04T23:35:04.535Z,28.36
2018-08-04T23:38:07.840Z,28.34
2018-08-04T23:41:12.172Z,28.33
2018-08-04T23:44:15.557Z,28.35
2018-08-04T23:47:22.269Z,28.37
2018-08-04T23:50:25.519Z,28.39
2018-08-04T23:53:28.869Z,28.40
2018-08-04T23:56:32.139Z,28.38
2018-08-04T23:59:35.426Z,28.32
